sensor_id;sensor_type;location;lat;lon;timestamp;P1;durP1;ratioP1;P2;durP2;ratioP2
23171;SDS011;11754;42.664;23.594;2023-04-16T00:01:58;8.60;;;3.80;;
23171;SDS011;11754;42.664;23.594;2023-04-16T00:04:23;7.00;;;3.53;;
23171;SDS011;11754;42.664;23.594;2023-04-16T00:06:49;6.47;;;3.50;;
23171;SDS011;11754;42.664;23.594;2023-04-16T00:09:14;12.27;;;3.40;;
23171;SDS011;11754;42.664;23.594;2023-04-16T00:11:40;7.22;;;3.65;;
23171;SDS011;11754;42.664;23.594;2023-04-16T00:14:05;7.22;;;3.97;;
23171;SDS011;11754;42.664;23.594;2023-04-16T00:16:31;10.45;;;5.05;;
23171;SDS011;11754;42.664;23.594;2023-04-16T00:18:56;11.60;;;5.60;;
23171;SDS011;11754;42.664;23.594;2023-04-16T00:21:21;15.10;;;6.00;;
23171;SDS011;11754;42.664;23.594;2023-04-16T00:23:47;12.73;;;6.50;;
23171;SDS011;11754;42.664;23.594;2023-04-16T00:26:12;11.05;;;5.80;;
23171;SDS011;11754;42.664;23.594;2023-04-16T00:28:38;8.88;;;4.78;;
23171;SDS011;11754;42.664;23.594;2023-04-16T00:31:03;10.77;;;5.25;;
23171;SDS011;11754;42.664;23.594;2023-04-16T00:33:29;10.07;;;5.05;;
23171;SDS011;11754;42.664;23.594;2023-04-16T00:35:54;12.18;;;5.80;;
23171;SDS011;11754;42.664;23.594;2023-04-16T00:38:20;12.15;;;6.22;;
23171;SDS011;11754;42.664;23.594;2023-04-16T00:40:45;9.23;;;5.60;;
23171;SDS011;11754;42.664;23.594;2023-04-16T00:43:16;19.35;;;10.88;;
23171;SDS011;11754;42.664;23.594;2023-04-16T00:45:45;21.52;;;12.32;;
23171;SDS011;11754;42.664;23.594;2023-04-16T00:48:10;35.92;;;20.25;;
23171;SDS011;11754;42.664;23.594;2023-04-16T00:50:36;21.75;;;10.98;;
23171;SDS011;11754;42.664;23.594;2023-04-16T00:53:01;36.22;;;18.52;;
23171;SDS011;11754;42.664;23.594;2023-04-16T00:55:28;33.08;;;17.55;;
23171;SDS011;11754;42.664;23.594;2023-04-16T00:57:53;25.80;;;13.18;;
23171;SDS011;11754;42.664;23.594;2023-04-16T01:00:19;11.05;;;5.07;;
23171;SDS011;11754;42.664;23.594;2023-04-16T01:02:45;10.43;;;5.38;;
23171;SDS011;11754;42.664;23.594;2023-04-16T01:05:10;7.22;;;4.13;;
23171;SDS011;11754;42.664;23.594;2023-04-16T01:07:36;6.15;;;4.07;;
23171;SDS011;11754;42.664;23.594;2023-04-16T01:10:02;8.38;;;4.53;;
23171;SDS011;11754;42.664;23.594;2023-04-16T01:12:28;10.63;;;4.60;;
23171;SDS011;11754;42.664;23.594;2023-04-16T01:14:53;11.27;;;4.47;;
23171;SDS011;11754;42.664;23.594;2023-04-16T01:17:19;9.82;;;4.45;;
23171;SDS011;11754;42.664;23.594;2023-04-16T01:19:44;7.65;;;3.92;;
23171;SDS011;11754;42.664;23.594;2023-04-16T01:22:09;7.82;;;3.80;;
23171;SDS011;11754;42.664;23.594;2023-04-16T01:24:35;6.88;;;4.10;;
23171;SDS011;11754;42.664;23.594;2023-04-16T01:27:01;7.00;;;3.90;;
23171;SDS011;11754;42.664;23.594;2023-04-16T01:29:27;8.52;;;3.78;;
23171;SDS011;11754;42.664;23.594;2023-04-16T01:31:52;5.28;;;3.55;;
23171;SDS011;11754;42.664;23.594;2023-04-16T01:34:18;6.25;;;3.67;;
23171;SDS011;11754;42.664;23.594;2023-04-16T01:36:43;5.65;;;3.80;;
23171;SDS011;11754;42.664;23.594;2023-04-16T01:39:09;8.57;;;4.13;;
23171;SDS011;11754;42.664;23.594;2023-04-16T01:41:40;6.70;;;3.10;;
23171;SDS011;11754;42.664;23.594;2023-04-16T01:44:06;5.80;;;2.85;;
23171;SDS011;11754;42.664;23.594;2023-04-16T01:46:32;3.60;;;2.33;;
23171;SDS011;11754;42.664;23.594;2023-04-16T01:49:00;4.72;;;2.35;;
23171;SDS011;11754;42.664;23.594;2023-04-16T01:51:26;5.88;;;2.30;;
23171;SDS011;11754;42.664;23.594;2023-04-16T01:53:52;5.75;;;2.35;;
23171;SDS011;11754;42.664;23.594;2023-04-16T01:56:18;6.57;;;2.63;;
23171;SDS011;11754;42.664;23.594;2023-04-16T01:58:44;4.18;;;2.55;;
23171;SDS011;11754;42.664;23.594;2023-04-16T02:01:11;4.82;;;2.60;;
23171;SDS011;11754;42.664;23.594;2023-04-16T02:03:37;5.32;;;2.40;;
23171;SDS011;11754;42.664;23.594;2023-04-16T02:06:03;6.07;;;2.63;;
23171;SDS011;11754;42.664;23.594;2023-04-16T02:08:28;7.90;;;2.60;;
23171;SDS011;11754;42.664;23.594;2023-04-16T02:10:54;5.70;;;2.83;;
23171;SDS011;11754;42.664;23.594;2023-04-16T02:13:20;7.15;;;2.78;;
23171;SDS011;11754;42.664;23.594;2023-04-16T02:15:48;5.70;;;3.17;;
23171;SDS011;11754;42.664;23.594;2023-04-16T02:18:14;5.18;;;2.90;;
23171;SDS011;11754;42.664;23.594;2023-04-16T02:20:41;5.75;;;2.80;;
23171;SDS011;11754;42.664;23.594;2023-04-16T02:23:07;3.67;;;2.53;;
23171;SDS011;11754;42.664;23.594;2023-04-16T02:25:45;7.10;;;2.85;;
23171;SDS011;11754;42.664;23.594;2023-04-16T02:28:12;4.93;;;2.83;;
23171;SDS011;11754;42.664;23.594;2023-04-16T02:30:39;4.68;;;2.53;;
23171;SDS011;11754;42.664;23.594;2023-04-16T02:33:06;5.32;;;2.30;;
23171;SDS011;11754;42.664;23.594;2023-04-16T02:35:36;5.43;;;2.55;;
23171;SDS011;11754;42.664;23.594;2023-04-16T02:38:03;6.47;;;2.58;;
23171;SDS011;11754;42.664;23.594;2023-04-16T02:40:29;5.55;;;2.83;;
23171;SDS011;11754;42.664;23.594;2023-04-16T02:42:55;5.30;;;2.38;;
23171;SDS011;11754;42.664;23.594;2023-04-16T02:45:20;5.15;;;2.58;;
23171;SDS011;11754;42.664;23.594;2023-04-16T02:47:46;5.15;;;2.47;;
23171;SDS011;11754;42.664;23.594;2023-04-16T02:50:13;8.50;;;2.90;;
23171;SDS011;11754;42.664;23.594;2023-04-16T02:52:38;5.53;;;2.75;;
23171;SDS011;11754;42.664;23.594;2023-04-16T02:55:04;8.15;;;2.90;;
23171;SDS011;11754;42.664;23.594;2023-04-16T02:57:31;7.35;;;3.17;;
23171;SDS011;11754;42.664;23.594;2023-04-16T02:59:57;10.13;;;4.43;;
23171;SDS011;11754;42.664;23.594;2023-04-16T03:02:23;8.50;;;4.50;;
23171;SDS011;11754;42.664;23.594;2023-04-16T03:04:48;8.48;;;5.18;;
23171;SDS011;11754;42.664;23.594;2023-04-16T03:07:14;6.22;;;4.50;;
23171;SDS011;11754;42.664;23.594;2023-04-16T03:09:39;7.43;;;4.65;;
23171;SDS011;11754;42.664;23.594;2023-04-16T03:12:05;7.55;;;4.05;;
23171;SDS011;11754;42.664;23.594;2023-04-16T03:14:30;7.85;;;4.00;;
23171;SDS011;11754;42.664;23.594;2023-04-16T03:16:56;7.97;;;3.70;;
23171;SDS011;11754;42.664;23.594;2023-04-16T03:19:22;6.22;;;3.97;;
23171;SDS011;11754;42.664;23.594;2023-04-16T03:21:47;13.93;;;8.05;;
23171;SDS011;11754;42.664;23.594;2023-04-16T03:24:13;14.65;;;5.50;;
23171;SDS011;11754;42.664;23.594;2023-04-16T03:26:38;30.42;;;15.07;;
23171;SDS011;11754;42.664;23.594;2023-04-16T03:29:04;33.65;;;16.75;;
23171;SDS011;11754;42.664;23.594;2023-04-16T03:31:29;20.70;;;13.45;;
23171;SDS011;11754;42.664;23.594;2023-04-16T03:33:55;13.68;;;10.02;;
23171;SDS011;11754;42.664;23.594;2023-04-16T03:36:21;15.65;;;10.77;;
23171;SDS011;11754;42.664;23.594;2023-04-16T03:38:51;8.32;;;5.75;;
23171;SDS011;11754;42.664;23.594;2023-04-16T03:41:16;10.45;;;6.43;;
23171;SDS011;11754;42.664;23.594;2023-04-16T03:43:42;5.63;;;4.00;;
23171;SDS011;11754;42.664;23.594;2023-04-16T03:46:07;9.80;;;4.70;;
23171;SDS011;11754;42.664;23.594;2023-04-16T03:48:32;8.27;;;3.95;;
23171;SDS011;11754;42.664;23.594;2023-04-16T03:50:58;8.77;;;4.32;;
23171;SDS011;11754;42.664;23.594;2023-04-16T03:53:23;16.17;;;8.45;;
23171;SDS011;11754;42.664;23.594;2023-04-16T03:55:49;22.38;;;11.98;;
23171;SDS011;11754;42.664;23.594;2023-04-16T03:58:16;7.95;;;4.00;;
23171;SDS011;11754;42.664;23.594;2023-04-16T04:00:41;8.80;;;4.45;;
23171;SDS011;11754;42.664;23.594;2023-04-16T04:03:07;6.50;;;3.53;;
23171;SDS011;11754;42.664;23.594;2023-04-16T04:05:37;12.38;;;6.63;;
23171;SDS011;11754;42.664;23.594;2023-04-16T04:08:04;7.82;;;3.08;;
23171;SDS011;11754;42.664;23.594;2023-04-16T04:10:31;9.25;;;3.70;;
23171;SDS011;11754;42.664;23.594;2023-04-16T04:12:57;5.70;;;2.70;;
23171;SDS011;11754;42.664;23.594;2023-04-16T04:15:22;6.68;;;3.20;;
23171;SDS011;11754;42.664;23.594;2023-04-16T04:17:48;8.05;;;3.28;;
23171;SDS011;11754;42.664;23.594;2023-04-16T04:20:13;28.40;;;8.13;;
23171;SDS011;11754;42.664;23.594;2023-04-16T04:22:38;12.50;;;4.63;;
23171;SDS011;11754;42.664;23.594;2023-04-16T04:25:04;10.32;;;3.55;;
23171;SDS011;11754;42.664;23.594;2023-04-16T04:27:30;10.10;;;3.80;;
23171;SDS011;11754;42.664;23.594;2023-04-16T04:29:56;8.15;;;2.90;;
23171;SDS011;11754;42.664;23.594;2023-04-16T04:32:22;15.05;;;5.22;;
23171;SDS011;11754;42.664;23.594;2023-04-16T04:34:47;15.60;;;6.25;;
23171;SDS011;11754;42.664;23.594;2023-04-16T04:37:12;13.73;;;4.65;;
23171;SDS011;11754;42.664;23.594;2023-04-16T04:39:38;24.60;;;7.10;;
23171;SDS011;11754;42.664;23.594;2023-04-16T04:42:03;25.30;;;9.65;;
23171;SDS011;11754;42.664;23.594;2023-04-16T04:44:28;21.08;;;10.63;;
23171;SDS011;11754;42.664;23.594;2023-04-16T04:46:54;23.02;;;9.48;;
23171;SDS011;11754;42.664;23.594;2023-04-16T04:49:19;15.23;;;6.13;;
23171;SDS011;11754;42.664;23.594;2023-04-16T04:51:44;12.75;;;5.68;;
23171;SDS011;11754;42.664;23.594;2023-04-16T04:54:10;20.58;;;5.60;;
23171;SDS011;11754;42.664;23.594;2023-04-16T04:56:35;16.55;;;8.32;;
23171;SDS011;11754;42.664;23.594;2023-04-16T04:59:01;18.88;;;12.88;;
23171;SDS011;11754;42.664;23.594;2023-04-16T05:01:26;25.77;;;19.73;;
23171;SDS011;11754;42.664;23.594;2023-04-16T05:03:51;21.67;;;11.98;;
23171;SDS011;11754;42.664;23.594;2023-04-16T05:06:17;13.25;;;8.40;;
23171;SDS011;11754;42.664;23.594;2023-04-16T05:08:42;9.48;;;5.72;;
23171;SDS011;11754;42.664;23.594;2023-04-16T05:11:07;10.70;;;5.90;;
23171;SDS011;11754;42.664;23.594;2023-04-16T05:13:33;11.63;;;5.63;;
23171;SDS011;11754;42.664;23.594;2023-04-16T05:15:58;16.27;;;6.22;;
23171;SDS011;11754;42.664;23.594;2023-04-16T05:18:24;14.15;;;6.97;;
23171;SDS011;11754;42.664;23.594;2023-04-16T05:20:49;12.88;;;8.90;;
23171;SDS011;11754;42.664;23.594;2023-04-16T05:23:14;16.17;;;9.90;;
23171;SDS011;11754;42.664;23.594;2023-04-16T05:25:40;16.35;;;7.15;;
23171;SDS011;11754;42.664;23.594;2023-04-16T05:28:05;12.80;;;6.85;;
23171;SDS011;11754;42.664;23.594;2023-04-16T05:30:31;15.75;;;7.97;;
23171;SDS011;11754;42.664;23.594;2023-04-16T05:32:56;13.63;;;7.50;;
23171;SDS011;11754;42.664;23.594;2023-04-16T05:35:21;11.77;;;7.43;;
23171;SDS011;11754;42.664;23.594;2023-04-16T05:37:47;15.90;;;8.48;;
23171;SDS011;11754;42.664;23.594;2023-04-16T05:40:12;12.38;;;6.97;;
23171;SDS011;11754;42.664;23.594;2023-04-16T05:42:38;16.48;;;7.18;;
23171;SDS011;11754;42.664;23.594;2023-04-16T05:45:03;9.15;;;4.00;;
23171;SDS011;11754;42.664;23.594;2023-04-16T05:47:30;9.18;;;4.07;;
23171;SDS011;11754;42.664;23.594;2023-04-16T05:49:56;10.75;;;3.95;;
23171;SDS011;11754;42.664;23.594;2023-04-16T05:52:21;7.63;;;3.47;;
23171;SDS011;11754;42.664;23.594;2023-04-16T05:54:46;6.13;;;2.20;;
23171;SDS011;11754;42.664;23.594;2023-04-16T05:57:12;7.50;;;2.55;;
23171;SDS011;11754;42.664;23.594;2023-04-16T05:59:38;7.65;;;3.28;;
23171;SDS011;11754;42.664;23.594;2023-04-16T06:02:03;11.27;;;4.63;;
23171;SDS011;11754;42.664;23.594;2023-04-16T06:04:28;6.72;;;2.72;;
23171;SDS011;11754;42.664;23.594;2023-04-16T06:06:55;5.85;;;2.15;;
23171;SDS011;11754;42.664;23.594;2023-04-16T06:09:20;10.18;;;4.53;;
23171;SDS011;11754;42.664;23.594;2023-04-16T06:11:46;7.72;;;2.58;;
23171;SDS011;11754;42.664;23.594;2023-04-16T06:14:11;7.38;;;2.70;;
23171;SDS011;11754;42.664;23.594;2023-04-16T06:16:37;9.27;;;3.38;;
23171;SDS011;11754;42.664;23.594;2023-04-16T06:19:02;5.95;;;2.28;;
23171;SDS011;11754;42.664;23.594;2023-04-16T06:21:27;10.15;;;4.45;;
23171;SDS011;11754;42.664;23.594;2023-04-16T06:23:53;7.55;;;3.00;;
23171;SDS011;11754;42.664;23.594;2023-04-16T06:26:20;6.78;;;2.35;;
23171;SDS011;11754;42.664;23.594;2023-04-16T06:28:45;8.48;;;2.22;;
23171;SDS011;11754;42.664;23.594;2023-04-16T06:31:11;7.78;;;2.00;;
23171;SDS011;11754;42.664;23.594;2023-04-16T06:33:36;9.10;;;2.17;;
23171;SDS011;11754;42.664;23.594;2023-04-16T06:36:01;8.23;;;2.10;;
23171;SDS011;11754;42.664;23.594;2023-04-16T06:38:27;8.90;;;2.58;;
23171;SDS011;11754;42.664;23.594;2023-04-16T06:40:52;8.15;;;2.60;;
23171;SDS011;11754;42.664;23.594;2023-04-16T06:43:18;9.18;;;2.13;;
23171;SDS011;11754;42.664;23.594;2023-04-16T06:45:43;6.35;;;2.13;;
23171;SDS011;11754;42.664;23.594;2023-04-16T06:48:08;6.68;;;1.77;;
23171;SDS011;11754;42.664;23.594;2023-04-16T06:50:34;11.00;;;2.28;;
23171;SDS011;11754;42.664;23.594;2023-04-16T06:52:59;10.07;;;3.13;;
23171;SDS011;11754;42.664;23.594;2023-04-16T06:55:24;9.20;;;2.63;;
23171;SDS011;11754;42.664;23.594;2023-04-16T06:57:50;8.48;;;2.92;;
23171;SDS011;11754;42.664;23.594;2023-04-16T07:00:15;8.40;;;1.77;;
23171;SDS011;11754;42.664;23.594;2023-04-16T07:02:41;9.90;;;2.35;;
23171;SDS011;11754;42.664;23.594;2023-04-16T07:05:06;6.63;;;2.15;;
23171;SDS011;11754;42.664;23.594;2023-04-16T07:07:33;7.15;;;2.30;;
23171;SDS011;11754;42.664;23.594;2023-04-16T07:09:58;7.03;;;2.30;;
23171;SDS011;11754;42.664;23.594;2023-04-16T07:12:23;6.63;;;2.20;;
23171;SDS011;11754;42.664;23.594;2023-04-16T07:14:49;7.43;;;2.10;;
23171;SDS011;11754;42.664;23.594;2023-04-16T07:17:14;7.95;;;2.15;;
23171;SDS011;11754;42.664;23.594;2023-04-16T07:19:40;7.18;;;2.45;;
23171;SDS011;11754;42.664;23.594;2023-04-16T07:22:05;7.68;;;2.60;;
23171;SDS011;11754;42.664;23.594;2023-04-16T07:24:31;7.35;;;1.90;;
23171;SDS011;11754;42.664;23.594;2023-04-16T07:26:56;9.93;;;5.45;;
23171;SDS011;11754;42.664;23.594;2023-04-16T07:29:22;8.32;;;2.13;;
23171;SDS011;11754;42.664;23.594;2023-04-16T07:31:47;9.93;;;2.03;;
23171;SDS011;11754;42.664;23.594;2023-04-16T07:34:13;10.57;;;5.85;;
23171;SDS011;11754;42.664;23.594;2023-04-16T07:36:38;10.70;;;3.90;;
23171;SDS011;11754;42.664;23.594;2023-04-16T07:39:03;8.57;;;2.70;;
23171;SDS011;11754;42.664;23.594;2023-04-16T07:41:30;8.07;;;1.90;;
23171;SDS011;11754;42.664;23.594;2023-04-16T07:43:55;6.28;;;1.98;;
23171;SDS011;11754;42.664;23.594;2023-04-16T07:46:21;10.20;;;2.30;;
23171;SDS011;11754;42.664;23.594;2023-04-16T07:48:47;6.82;;;1.80;;
23171;SDS011;11754;42.664;23.594;2023-04-16T07:51:12;7.50;;;2.00;;
23171;SDS011;11754;42.664;23.594;2023-04-16T07:53:38;7.88;;;2.30;;
23171;SDS011;11754;42.664;23.594;2023-04-16T07:56:03;10.02;;;3.08;;
23171;SDS011;11754;42.664;23.594;2023-04-16T07:58:29;5.88;;;2.20;;
23171;SDS011;11754;42.664;23.594;2023-04-16T08:00:54;8.63;;;5.55;;
23171;SDS011;11754;42.664;23.594;2023-04-16T08:03:20;7.90;;;2.55;;
23171;SDS011;11754;42.664;23.594;2023-04-16T08:05:45;7.00;;;2.10;;
23171;SDS011;11754;42.664;23.594;2023-04-16T08:08:11;7.30;;;2.38;;
23171;SDS011;11754;42.664;23.594;2023-04-16T08:10:36;6.63;;;1.90;;
23171;SDS011;11754;42.664;23.594;2023-04-16T08:13:03;8.35;;;1.70;;
23171;SDS011;11754;42.664;23.594;2023-04-16T08:15:28;8.95;;;2.40;;
23171;SDS011;11754;42.664;23.594;2023-04-16T08:17:53;4.68;;;1.90;;
23171;SDS011;11754;42.664;23.594;2023-04-16T08:20:19;7.97;;;2.05;;
23171;SDS011;11754;42.664;23.594;2023-04-16T08:22:44;7.50;;;1.95;;
23171;SDS011;11754;42.664;23.594;2023-04-16T08:25:10;8.38;;;1.80;;
23171;SDS011;11754;42.664;23.594;2023-04-16T08:27:36;7.38;;;2.00;;
23171;SDS011;11754;42.664;23.594;2023-04-16T08:30:01;5.05;;;1.85;;
23171;SDS011;11754;42.664;23.594;2023-04-16T08:32:27;10.15;;;2.30;;
23171;SDS011;11754;42.664;23.594;2023-04-16T08:34:52;8.35;;;2.08;;
23171;SDS011;11754;42.664;23.594;2023-04-16T08:37:18;5.07;;;1.77;;
23171;SDS011;11754;42.664;23.594;2023-04-16T08:39:43;7.03;;;1.80;;
23171;SDS011;11754;42.664;23.594;2023-04-16T08:42:13;4.43;;;1.80;;
23171;SDS011;11754;42.664;23.594;2023-04-16T08:44:47;7.97;;;1.90;;
23171;SDS011;11754;42.664;23.594;2023-04-16T08:47:13;5.40;;;1.60;;
23171;SDS011;11754;42.664;23.594;2023-04-16T08:49:43;10.18;;;1.83;;
23171;SDS011;11754;42.664;23.594;2023-04-16T08:52:13;8.98;;;1.92;;
23171;SDS011;11754;42.664;23.594;2023-04-16T08:54:44;4.85;;;1.55;;
23171;SDS011;11754;42.664;23.594;2023-04-16T08:57:22;7.75;;;1.80;;
23171;SDS011;11754;42.664;23.594;2023-04-16T08:59:50;5.90;;;1.58;;
23171;SDS011;11754;42.664;23.594;2023-04-16T09:02:18;5.00;;;1.70;;
23171;SDS011;11754;42.664;23.594;2023-04-16T09:04:44;4.47;;;1.80;;
23171;SDS011;11754;42.664;23.594;2023-04-16T09:07:12;6.45;;;1.98;;
23171;SDS011;11754;42.664;23.594;2023-04-16T09:09:38;10.50;;;2.10;;
23171;SDS011;11754;42.664;23.594;2023-04-16T09:12:05;6.72;;;1.80;;
23171;SDS011;11754;42.664;23.594;2023-04-16T09:14:32;5.78;;;2.08;;
23171;SDS011;11754;42.664;23.594;2023-04-16T09:16:59;5.68;;;1.98;;
23171;SDS011;11754;42.664;23.594;2023-04-16T09:19:26;6.40;;;1.98;;
23171;SDS011;11754;42.664;23.594;2023-04-16T09:21:52;5.75;;;2.17;;
23171;SDS011;11754;42.664;23.594;2023-04-16T09:24:17;9.30;;;1.77;;
23171;SDS011;11754;42.664;23.594;2023-04-16T09:26:43;7.95;;;1.75;;
23171;SDS011;11754;42.664;23.594;2023-04-16T09:29:09;3.95;;;1.50;;
23171;SDS011;11754;42.664;23.594;2023-04-16T09:31:34;4.97;;;1.42;;
23171;SDS011;11754;42.664;23.594;2023-04-16T09:34:01;6.72;;;1.83;;
23171;SDS011;11754;42.664;23.594;2023-04-16T09:36:31;4.82;;;1.38;;
23171;SDS011;11754;42.664;23.594;2023-04-16T09:38:57;5.18;;;1.30;;
23171;SDS011;11754;42.664;23.594;2023-04-16T09:41:32;3.65;;;1.20;;
23171;SDS011;11754;42.664;23.594;2023-04-16T09:44:03;5.68;;;1.35;;
23171;SDS011;11754;42.664;23.594;2023-04-16T09:48:56;6.18;;;1.48;;
23171;SDS011;11754;42.664;23.594;2023-04-16T09:51:21;10.38;;;1.50;;
23171;SDS011;11754;42.664;23.594;2023-04-16T09:53:47;5.03;;;1.35;;
23171;SDS011;11754;42.664;23.594;2023-04-16T09:56:16;3.88;;;1.50;;
23171;SDS011;11754;42.664;23.594;2023-04-16T09:58:42;3.92;;;1.08;;
23171;SDS011;11754;42.664;23.594;2023-04-16T10:01:08;4.20;;;1.10;;
23171;SDS011;11754;42.664;23.594;2023-04-16T10:03:35;3.63;;;1.10;;
23171;SDS011;11754;42.664;23.594;2023-04-16T10:08:30;3.85;;;0.88;;
23171;SDS011;11754;42.664;23.594;2023-04-16T10:10:56;5.38;;;1.00;;
23171;SDS011;11754;42.664;23.594;2023-04-16T10:13:22;3.80;;;1.05;;
23171;SDS011;11754;42.664;23.594;2023-04-16T10:15:49;5.57;;;1.40;;
23171;SDS011;11754;42.664;23.594;2023-04-16T10:18:15;6.15;;;1.63;;
23171;SDS011;11754;42.664;23.594;2023-04-16T10:20:41;4.20;;;1.20;;
23171;SDS011;11754;42.664;23.594;2023-04-16T10:23:08;3.30;;;1.00;;
23171;SDS011;11754;42.664;23.594;2023-04-16T10:25:34;3.70;;;1.10;;
23171;SDS011;11754;42.664;23.594;2023-04-16T10:28:00;6.47;;;1.77;;
23171;SDS011;11754;42.664;23.594;2023-04-16T10:30:26;8.70;;;4.15;;
23171;SDS011;11754;42.664;23.594;2023-04-16T10:32:52;3.88;;;1.08;;
23171;SDS011;11754;42.664;23.594;2023-04-16T10:35:18;3.75;;;1.00;;
23171;SDS011;11754;42.664;23.594;2023-04-16T10:37:44;4.82;;;1.00;;
23171;SDS011;11754;42.664;23.594;2023-04-16T10:40:21;3.38;;;1.10;;
23171;SDS011;11754;42.664;23.594;2023-04-16T10:42:56;3.15;;;1.02;;
23171;SDS011;11754;42.664;23.594;2023-04-16T10:45:41;3.83;;;1.00;;
23171;SDS011;11754;42.664;23.594;2023-04-16T10:48:06;3.15;;;0.93;;
23171;SDS011;11754;42.664;23.594;2023-04-16T10:50:36;5.13;;;1.10;;
23171;SDS011;11754;42.664;23.594;2023-04-16T10:53:18;3.35;;;1.30;;
23171;SDS011;11754;42.664;23.594;2023-04-16T10:58:31;3.38;;;1.00;;
23171;SDS011;11754;42.664;23.594;2023-04-16T11:01:00;2.95;;;0.90;;
23171;SDS011;11754;42.664;23.594;2023-04-16T11:03:45;4.15;;;1.13;;
23171;SDS011;11754;42.664;23.594;2023-04-16T11:06:12;3.15;;;1.23;;
23171;SDS011;11754;42.664;23.594;2023-04-16T11:08:43;3.72;;;1.40;;
23171;SDS011;11754;42.664;23.594;2023-04-16T11:11:12;2.38;;;0.80;;
23171;SDS011;11754;42.664;23.594;2023-04-16T11:13:37;5.57;;;0.93;;
23171;SDS011;11754;42.664;23.594;2023-04-16T11:16:08;2.30;;;0.65;;
23171;SDS011;11754;42.664;23.594;2023-04-16T11:18:34;3.17;;;0.93;;
23171;SDS011;11754;42.664;23.594;2023-04-16T11:21:00;3.45;;;0.80;;
23171;SDS011;11754;42.664;23.594;2023-04-16T11:23:26;5.03;;;0.90;;
23171;SDS011;11754;42.664;23.594;2023-04-16T11:25:51;3.67;;;0.68;;
23171;SDS011;11754;42.664;23.594;2023-04-16T11:28:30;2.22;;;0.70;;
23171;SDS011;11754;42.664;23.594;2023-04-16T11:30:57;3.65;;;0.80;;
23171;SDS011;11754;42.664;23.594;2023-04-16T11:33:23;1.73;;;0.60;;
23171;SDS011;11754;42.664;23.594;2023-04-16T11:35:55;2.42;;;0.65;;
23171;SDS011;11754;42.664;23.594;2023-04-16T11:38:31;4.07;;;0.80;;
23171;SDS011;11754;42.664;23.594;2023-04-16T11:40:58;2.88;;;0.75;;
23171;SDS011;11754;42.664;23.594;2023-04-16T11:43:23;2.90;;;0.80;;
23171;SDS011;11754;42.664;23.594;2023-04-16T11:48:45;2.50;;;1.00;;
23171;SDS011;11754;42.664;23.594;2023-04-16T11:51:13;3.28;;;1.10;;
23171;SDS011;11754;42.664;23.594;2023-04-16T11:53:59;4.55;;;1.75;;
23171;SDS011;11754;42.664;23.594;2023-04-16T11:56:28;4.22;;;1.17;;
23171;SDS011;11754;42.664;23.594;2023-04-16T11:59:07;2.05;;;1.00;;
23171;SDS011;11754;42.664;23.594;2023-04-16T12:01:35;4.28;;;1.70;;
23171;SDS011;11754;42.664;23.594;2023-04-16T12:04:01;7.78;;;2.40;;
23171;SDS011;11754;42.664;23.594;2023-04-16T12:06:27;4.40;;;1.40;;
23171;SDS011;11754;42.664;23.594;2023-04-16T12:08:52;2.97;;;1.00;;
23171;SDS011;11754;42.664;23.594;2023-04-16T12:11:18;2.88;;;1.00;;
23171;SDS011;11754;42.664;23.594;2023-04-16T12:16:33;4.80;;;1.60;;
23171;SDS011;11754;42.664;23.594;2023-04-16T12:18:59;5.32;;;1.50;;
23171;SDS011;11754;42.664;23.594;2023-04-16T12:21:42;2.70;;;1.05;;
23171;SDS011;11754;42.664;23.594;2023-04-16T12:24:10;4.97;;;1.55;;
23171;SDS011;11754;42.664;23.594;2023-04-16T12:26:43;3.35;;;1.17;;
23171;SDS011;11754;42.664;23.594;2023-04-16T12:29:24;3.03;;;1.15;;
23171;SDS011;11754;42.664;23.594;2023-04-16T12:31:53;5.78;;;1.40;;
23171;SDS011;11754;42.664;23.594;2023-04-16T12:34:19;5.10;;;1.30;;
23171;SDS011;11754;42.664;23.594;2023-04-16T12:36:46;2.63;;;0.93;;
23171;SDS011;11754;42.664;23.594;2023-04-16T12:39:13;8.38;;;1.15;;
23171;SDS011;11754;42.664;23.594;2023-04-16T12:41:40;3.10;;;1.10;;
23171;SDS011;11754;42.664;23.594;2023-04-16T12:44:14;5.32;;;1.00;;
23171;SDS011;11754;42.664;23.594;2023-04-16T12:46:42;8.00;;;1.00;;
23171;SDS011;11754;42.664;23.594;2023-04-16T12:49:08;3.45;;;1.10;;
23171;SDS011;11754;42.664;23.594;2023-04-16T12:51:35;2.58;;;1.00;;
23171;SDS011;11754;42.664;23.594;2023-04-16T12:54:02;3.35;;;0.93;;
23171;SDS011;11754;42.664;23.594;2023-04-16T12:56:29;4.38;;;1.45;;
23171;SDS011;11754;42.664;23.594;2023-04-16T12:58:54;6.07;;;1.38;;
23171;SDS011;11754;42.664;23.594;2023-04-16T13:01:20;4.65;;;1.27;;
23171;SDS011;11754;42.664;23.594;2023-04-16T13:03:46;5.60;;;1.30;;
23171;SDS011;11754;42.664;23.594;2023-04-16T13:06:12;3.28;;;1.23;;
23171;SDS011;11754;42.664;23.594;2023-04-16T13:08:40;3.55;;;1.20;;
23171;SDS011;11754;42.664;23.594;2023-04-16T13:11:05;4.18;;;0.95;;
23171;SDS011;11754;42.664;23.594;2023-04-16T13:13:31;7.93;;;1.40;;
23171;SDS011;11754;42.664;23.594;2023-04-16T13:15:57;2.30;;;0.73;;
23171;SDS011;11754;42.664;23.594;2023-04-16T13:18:24;2.25;;;0.90;;
23171;SDS011;11754;42.664;23.594;2023-04-16T13:20:50;4.13;;;1.02;;
23171;SDS011;11754;42.664;23.594;2023-04-16T13:23:16;3.55;;;1.08;;
23171;SDS011;11754;42.664;23.594;2023-04-16T13:25:41;3.80;;;1.17;;
23171;SDS011;11754;42.664;23.594;2023-04-16T13:28:06;2.78;;;0.90;;
23171;SDS011;11754;42.664;23.594;2023-04-16T13:30:32;6.93;;;1.13;;
23171;SDS011;11754;42.664;23.594;2023-04-16T13:32:57;4.40;;;1.40;;
23171;SDS011;11754;42.664;23.594;2023-04-16T13:35:23;5.30;;;1.50;;
23171;SDS011;11754;42.664;23.594;2023-04-16T13:37:48;4.88;;;1.67;;
23171;SDS011;11754;42.664;23.594;2023-04-16T13:40:14;4.32;;;1.20;;
23171;SDS011;11754;42.664;23.594;2023-04-16T13:42:39;3.58;;;1.30;;
23171;SDS011;11754;42.664;23.594;2023-04-16T13:45:05;3.50;;;1.23;;
23171;SDS011;11754;42.664;23.594;2023-04-16T13:47:31;5.03;;;1.55;;
23171;SDS011;11754;42.664;23.594;2023-04-16T13:49:56;3.60;;;1.08;;
23171;SDS011;11754;42.664;23.594;2023-04-16T13:52:21;2.42;;;1.02;;
23171;SDS011;11754;42.664;23.594;2023-04-16T13:54:47;4.70;;;1.20;;
23171;SDS011;11754;42.664;23.594;2023-04-16T13:57:12;14.60;;;5.07;;
23171;SDS011;11754;42.664;23.594;2023-04-16T13:59:38;11.07;;;3.70;;
23171;SDS011;11754;42.664;23.594;2023-04-16T14:02:03;7.72;;;2.00;;
23171;SDS011;11754;42.664;23.594;2023-04-16T14:04:29;4.20;;;1.85;;
23171;SDS011;11754;42.664;23.594;2023-04-16T14:06:55;9.90;;;2.10;;
23171;SDS011;11754;42.664;23.594;2023-04-16T14:09:21;5.90;;;1.75;;
23171;SDS011;11754;42.664;23.594;2023-04-16T14:11:46;7.25;;;1.90;;
23171;SDS011;11754;42.664;23.594;2023-04-16T14:14:11;3.90;;;1.60;;
23171;SDS011;11754;42.664;23.594;2023-04-16T14:16:37;6.75;;;2.88;;
23171;SDS011;11754;42.664;23.594;2023-04-16T14:19:02;5.20;;;1.80;;
23171;SDS011;11754;42.664;23.594;2023-04-16T14:21:28;5.15;;;1.42;;
23171;SDS011;11754;42.664;23.594;2023-04-16T14:23:55;4.40;;;2.10;;
23171;SDS011;11754;42.664;23.594;2023-04-16T14:26:20;19.30;;;3.03;;
23171;SDS011;11754;42.664;23.594;2023-04-16T14:28:46;3.38;;;1.42;;
23171;SDS011;11754;42.664;23.594;2023-04-16T14:31:11;6.45;;;1.95;;
23171;SDS011;11754;42.664;23.594;2023-04-16T14:33:37;6.72;;;1.80;;
23171;SDS011;11754;42.664;23.594;2023-04-16T14:36:02;5.53;;;1.90;;
23171;SDS011;11754;42.664;23.594;2023-04-16T14:38:28;4.47;;;1.50;;
23171;SDS011;11754;42.664;23.594;2023-04-16T14:40:53;5.78;;;1.85;;